createdAt,value
2018-02-21T07:00:06.237Z,49.20
2018-02-21T07:02:34.374Z,47.30
2018-02-21T07:05:01.549Z,45.10
2018-02-21T07:07:29.542Z,42.90
2018-02-21T07:09:57.553Z,42.60
2018-02-21T07:12:24.730Z,42.50
2018-02-21T07:14:51.893Z,42.80
2018-02-21T07:17:19.072Z,43.20
2018-02-21T07:19:47.000Z,43.10
2018-02-21T07:22:14.169Z,42.70
2018-02-21T07:24:41.339Z,42.10
2018-02-21T07:27:08.516Z,42.30
2018-02-21T07:29:36.448Z,42.10
2018-02-21T07:32:03.650Z,42.00
2018-02-21T07:34:30.862Z,42.30
2018-02-21T07:36:58.060Z,41.80
2018-02-21T07:39:25.216Z,42.00
2018-02-21T07:41:52.376Z,42.10
2018-02-21T07:44:19.550Z,42.40
2018-02-21T07:46:46.712Z,42.20
2018-02-21T07:49:13.868Z,42.30
2018-02-21T07:51:41.030Z,42.20
2018-02-21T07:54:08.192Z,41.90
2018-02-21T07:56:36.160Z,41.90
2018-02-21T07:59:04.090Z,42.20
2018-02-21T08:01:31.261Z,42.70
2018-02-21T08:03:58.421Z,41.80
2018-02-21T08:06:25.586Z,41.80
2018-02-21T08:08:53.516Z,42.60
2018-02-21T08:11:20.676Z,42.50
2018-02-21T08:13:47.832Z,42.50
2018-02-21T08:16:14.989Z,42.40
2018-02-21T08:18:42.146Z,43.00
2018-02-21T08:21:09.313Z,42.80
2018-02-21T08:23:37.241Z,43.10
2018-02-21T08:26:04.454Z,43.00
2018-02-21T08:28:31.620Z,43.20
2018-02-21T08:30:58.778Z,42.60
2018-02-21T08:33:25.943Z,42.30
2018-02-21T08:35:53.110Z,42.60
2018-02-21T08:38:20.276Z,42.70
2018-02-21T08:40:47.440Z,42.50
2018-02-21T08:43:15.371Z,42.40
2018-02-21T08:45:43.309Z,42.20
2018-02-21T08:48:10.469Z,42.80
2018-02-21T08:50:37.636Z,43.00
2018-02-21T08:53:04.839Z,42.40
2018-02-21T08:55:32.766Z,42.30
2018-02-21T08:57:59.986Z,42.90
2018-02-21T09:00:27.126Z,42.00
2018-02-21T09:02:54.289Z,41.90
2018-02-21T09:05:21.450Z,42.50
2018-02-21T09:07:48.649Z,42.80
2018-02-21T09:10:15.809Z,42.90
2018-02-21T09:12:43.746Z,42.80
2018-02-21T09:15:10.918Z,42.70
2018-02-21T09:17:38.082Z,43.30
2018-02-21T09:20:06.008Z,43.20
2018-02-21T09:22:33.169Z,43.20
2018-02-21T09:25:00.333Z,42.70
2018-02-21T09:27:27.537Z,42.70
2018-02-21T09:29:54.696Z,42.30
2018-02-21T09:32:21.857Z,43.20
2018-02-21T09:34:49.016Z,43.60
2018-02-21T09:37:16.189Z,43.20
2018-02-21T09:39:43.353Z,43.10
2018-02-21T09:42:11.462Z,43.30
2018-02-21T09:44:38.631Z,43.20
2018-02-21T09:47:05.830Z,43.30
2018-02-21T09:49:33.826Z,43.70
2018-02-21T09:52:01.036Z,43.20
2018-02-21T09:54:28.201Z,43.30
2018-02-21T09:56:55.370Z,43.80
2018-02-21T09:59:23.333Z,43.00
2018-02-21T10:01:51.262Z,42.80
2018-02-21T10:04:18.490Z,42.70
2018-02-21T10:06:45.662Z,42.60
2018-02-21T10:09:12.820Z,42.30
2018-02-21T10:11:39.989Z,42.90
2018-02-21T10:14:08.070Z,42.30
2018-02-21T10:16:35.232Z,42.40
2018-02-21T10:19:03.198Z,42.80
2018-02-21T10:21:30.361Z,42.70
2018-02-21T10:23:58.290Z,42.60
2018-02-21T10:26:25.449Z,42.50
2018-02-21T10:28:52.605Z,42.40
2018-02-21T10:31:19.810Z,42.50
2018-02-21T10:33:46.970Z,42.50
2018-02-21T10:36:14.168Z,42.30
2018-02-21T10:38:41.329Z,42.30
2018-02-21T10:41:09.305Z,42.80
2018-02-21T10:43:37.233Z,41.90
2018-02-21T10:46:04.401Z,41.80
2018-02-21T10:48:31.570Z,41.80
2018-02-21T10:50:58.738Z,41.80
2018-02-21T10:53:26.715Z,42.30
2018-02-21T10:55:54.633Z,42.50
2018-02-21T10:58:21.800Z,43.00
2018-02-21T11:00:54.838Z,42.20
2018-02-21T11:03:21.998Z,42.10
2018-02-21T11:05:49.161Z,42.50
2018-02-21T11:08:16.325Z,42.20
2018-02-21T11:10:43.489Z,42.50
2018-02-21T11:13:10.652Z,42.20
2018-02-21T11:15:37.815Z,42.60
2018-02-21T11:18:05.789Z,41.70
2018-02-21T11:20:33.713Z,42.00
2018-02-21T11:23:00.879Z,41.90
2018-02-21T11:25:28.054Z,42.20
2018-02-21T11:27:55.990Z,41.80
2018-02-21T11:30:23.164Z,41.80
2018-02-21T11:32:50.326Z,41.30
2018-02-21T11:35:18.260Z,40.80
2018-02-21T11:37:45.434Z,40.80
2018-02-21T11:40:12.588Z,40.90
2018-02-21T11:42:39.748Z,40.60
2018-02-21T11:45:07.708Z,40.50
2018-02-21T11:47:34.920Z,40.50
2018-02-21T11:50:02.090Z,40.40
2018-02-21T11:52:29.257Z,40.40
2018-02-21T11:54:56.422Z,40.60
2018-02-21T11:57:23.585Z,40.40
2018-02-21T11:59:51.553Z,40.90
2018-02-21T12:02:19.482Z,40.60
2018-02-21T12:04:46.746Z,40.60
2018-02-21T12:07:13.877Z,40.70
2018-02-21T12:09:41.852Z,40.40
2018-02-21T12:12:09.046Z,40.30
2018-02-21T12:14:36.994Z,40.40
2018-02-21T12:17:04.158Z,40.40
2018-02-21T12:19:32.085Z,41.00
2018-02-21T12:21:59.251Z,40.50
2018-02-21T12:24:26.413Z,40.40
2018-02-21T12:26:53.578Z,40.30
2018-02-21T12:29:20.741Z,40.70
2018-02-21T12:31:48.665Z,40.50
2018-02-21T12:34:15.826Z,40.50
2018-02-21T12:36:43.753Z,40.10
2018-02-21T12:39:25.837Z,40.10
2018-02-21T12:41:53.769Z,39.90
2018-02-21T12:44:21.746Z,40.30
2018-02-21T12:46:48.909Z,40.30
2018-02-21T12:49:16.842Z,40.10
2018-02-21T12:51:44.008Z,40.50
2018-02-21T12:54:11.173Z,40.50
2018-02-21T12:56:38.336Z,40.50
2018-02-21T12:59:05.505Z,40.30
2018-02-21T13:01:33.435Z,40.70
2018-02-21T13:04:00.606Z,40.70
2018-02-21T13:06:27.811Z,40.40
2018-02-21T13:08:54.968Z,40.30
2018-02-21T13:11:22.129Z,40.30
2018-02-21T13:13:49.285Z,39.50
2018-02-21T13:16:16.481Z,40.10
2018-02-21T13:18:44.409Z,40.00
2018-02-21T13:21:11.602Z,40.00
2018-02-21T13:23:38.769Z,40.20
2018-02-21T13:26:05.937Z,40.30
2018-02-21T13:28:33.150Z,40.00
2018-02-21T13:31:01.074Z,39.70
2018-02-21T13:33:28.246Z,39.70
2018-02-21T13:35:55.413Z,39.30
2018-02-21T13:38:22.573Z,40.40
2018-02-21T13:40:50.541Z,40.10
2018-02-21T13:43:18.470Z,40.30
2018-02-21T13:45:46.393Z,39.80
2018-02-21T13:48:13.557Z,39.80
2018-02-21T13:50:40.762Z,40.00
2018-02-21T13:53:07.928Z,40.00
2018-02-21T13:55:35.870Z,40.30
2018-02-21T13:58:03.028Z,40.30
2018-02-21T14:00:30.189Z,40.30
2018-02-21T14:02:57.349Z,40.50
2018-02-21T14:05:25.272Z,40.20
2018-02-21T14:07:52.434Z,40.10
2018-02-21T14:10:20.358Z,40.70
2018-02-21T14:12:48.300Z,41.10
2018-02-21T14:15:15.457Z,40.50
2018-02-21T14:17:42.620Z,40.00
2018-02-21T14:20:10.549Z,40.80
2018-02-21T14:22:37.710Z,40.70
2018-02-21T14:25:04.870Z,40.70
2018-02-21T14:27:32.037Z,40.10
2018-02-21T14:30:00.010Z,40.30
2018-02-21T14:32:27.937Z,40.10
2018-02-21T14:34:55.134Z,40.00
2018-02-21T14:37:23.065Z,40.20
2018-02-21T14:39:50.224Z,40.20
2018-02-21T14:42:17.389Z,40.40
2018-02-21T14:44:44.558Z,40.80
2018-02-21T14:47:12.490Z,40.40
2018-02-21T14:49:39.656Z,40.30
2018-02-21T14:52:06.816Z,40.50
2018-02-21T14:54:33.982Z,40.60
2018-02-21T14:57:01.918Z,40.80
2018-02-21T14:59:29.077Z,40.80
2018-02-21T15:01:56.290Z,40.80
2018-02-21T15:04:23.456Z,40.70
2018-02-21T15:06:50.617Z,40.90
2018-02-21T15:09:17.783Z,41.10
2018-02-21T15:11:44.946Z,40.50
2018-02-21T15:14:12.917Z,41.00
2018-02-21T15:16:40.862Z,40.90
2018-02-21T15:19:08.137Z,40.80
2018-02-21T15:21:35.321Z,40.90
2018-02-21T15:24:02.628Z,40.80
2018-02-21T15:26:29.800Z,40.90
2018-02-21T15:28:57.770Z,40.90
2018-02-21T15:31:25.726Z,40.40
2018-02-21T15:33:52.932Z,40.90
2018-02-21T15:36:20.090Z,41.00
2018-02-21T15:38:47.357Z,41.00
2018-02-21T15:41:14.448Z,41.00
2018-02-21T15:43:42.373Z,41.20
2018-02-21T15:46:09.541Z,40.90
2018-02-21T15:48:36.705Z,37.80
2018-02-21T15:51:03.906Z,38.90
2018-02-21T15:53:31.101Z,39.20
2018-02-21T15:55:58.277Z,39.70
2018-02-21T15:58:26.206Z,40.40
2018-02-21T16:00:53.376Z,39.70
2018-02-21T16:03:20.534Z,40.00
2018-02-21T16:05:47.698Z,40.10
2018-02-21T16:08:15.626Z,40.70
2018-02-21T16:10:42.788Z,40.40
2018-02-21T16:13:09.949Z,40.70
2018-02-21T16:15:37.101Z,40.20
2018-02-21T16:18:04.261Z,40.20
2018-02-21T16:20:31.429Z,40.20
2018-02-21T16:22:59.357Z,40.70
2018-02-21T16:25:26.523Z,40.70
2018-02-21T16:27:53.721Z,40.10
2018-02-21T16:30:20.898Z,39.70
2018-02-21T16:32:48.065Z,39.80
2018-02-21T16:35:15.233Z,40.20
2018-02-21T16:37:42.405Z,39.90
2018-02-21T16:40:10.334Z,40.30
2018-02-21T16:42:37.497Z,40.30
2018-02-21T16:45:04.656Z,40.20
2018-02-21T16:47:32.604Z,41.40
2018-02-21T16:49:59.765Z,40.70
2018-02-21T16:52:26.924Z,40.60
2018-02-21T16:54:54.087Z,40.80
2018-02-21T16:57:21.247Z,40.60
2018-02-21T16:59:49.172Z,41.10
2018-02-21T17:02:16.365Z,40.60
2018-02-21T17:04:43.570Z,41.10
2018-02-21T17:07:10.733Z,40.90
2018-02-21T17:09:37.937Z,40.70
2018-02-21T17:12:05.871Z,40.90
2018-02-21T17:14:33.034Z,40.80
2018-02-21T17:17:00.202Z,40.90
2018-02-21T17:19:28.133Z,40.90
2018-02-21T17:21:55.301Z,40.90
2018-02-21T17:24:22.467Z,41.10
2018-02-21T17:26:49.625Z,41.10
2018-02-21T17:29:17.548Z,41.20
2018-02-21T17:31:44.710Z,41.10
2018-02-21T17:34:11.869Z,40.90
2018-02-21T17:36:39.024Z,41.10
2018-02-21T17:39:06.182Z,41.10
2018-02-21T17:41:33.341Z,41.20
2018-02-21T17:44:00.519Z,40.90
2018-02-21T17:46:27.681Z,40.80
2018-02-21T17:48:54.860Z,40.70
2018-02-21T17:51:22.020Z,40.80
2018-02-21T17:53:49.191Z,40.80
2018-02-21T17:56:16.358Z,40.80
2018-02-21T17:58:44.292Z,41.00
2018-02-21T18:01:12.225Z,40.70
2018-02-21T18:03:39.404Z,40.70
2018-02-21T18:06:06.564Z,40.80
2018-02-21T18:08:33.726Z,40.70
2018-02-21T18:11:00.888Z,40.40
2018-02-21T18:13:28.054Z,40.30
2018-02-21T18:15:55.994Z,40.20
2018-02-21T18:18:23.157Z,40.10
2018-02-21T18:20:50.316Z,40.10
2018-02-21T18:23:17.477Z,40.10
2018-02-21T18:25:46.437Z,40.10
2018-02-21T18:28:13.639Z,40.10
2018-02-21T18:30:40.844Z,40.00
2018-02-21T18:33:08.016Z,40.10
2018-02-21T18:35:35.261Z,40.00
2018-02-21T18:38:02.420Z,40.00
2018-02-21T18:40:29.582Z,40.30
2018-02-21T18:42:57.516Z,40.30
2018-02-21T18:45:24.676Z,40.30
2018-02-21T18:47:51.846Z,40.20
2018-02-21T18:50:19.785Z,40.40
2018-02-21T18:52:46.952Z,40.30
2018-02-21T18:55:14.117Z,40.60
2018-02-21T18:57:42.056Z,40.30
2018-02-21T19:00:09.280Z,40.20
2018-02-21T19:02:36.477Z,40.30
2018-02-21T19:05:03.678Z,40.40
2018-02-21T19:07:30.846Z,40.70
2018-02-21T19:09:58.017Z,40.70
2018-02-21T19:12:25.293Z,41.00
2018-02-21T19:14:52.537Z,40.70
2018-02-21T19:17:19.709Z,40.90
2018-02-21T19:19:47.667Z,41.00
2018-02-21T19:22:14.825Z,40.90
2018-02-21T19:24:41.989Z,40.30
2018-02-21T19:27:09.939Z,40.50
2018-02-21T19:29:37.111Z,40.50
2018-02-21T19:32:05.089Z,40.50
2018-02-21T19:34:33.131Z,40.30
2018-02-21T19:37:00.324Z,40.20
2018-02-21T19:39:27.531Z,40.70
2018-02-21T19:41:54.689Z,40.80
2018-02-21T19:44:21.858Z,40.30
2018-02-21T19:46:49.797Z,40.30
2018-02-21T19:49:17.730Z,40.00
2018-02-21T19:51:44.902Z,39.90
2018-02-21T19:54:12.062Z,40.60
2018-02-21T19:56:39.225Z,40.90
2018-02-21T19:59:06.394Z,40.50
2018-02-21T20:01:34.349Z,40.90
2018-02-21T20:04:01.512Z,40.90
2018-02-21T20:06:29.458Z,40.80
2018-02-21T20:08:56.646Z,41.00
2018-02-21T20:11:24.579Z,40.40
2018-02-21T20:13:51.793Z,40.30
2018-02-21T20:16:18.961Z,40.40
2018-02-21T20:18:46.130Z,40.20
2018-02-21T20:21:13.295Z,40.50
2018-02-21T20:23:40.462Z,40.60
2018-02-21T20:26:07.624Z,40.70
2018-02-21T20:28:35.559Z,40.50
2018-02-21T20:31:02.722Z,40.50
2018-02-21T20:33:29.884Z,40.50
2018-02-21T20:35:57.083Z,40.50
2018-02-21T20:38:24.309Z,40.30
2018-02-21T20:40:51.481Z,40.50
2018-02-21T20:43:18.653Z,40.30
2018-02-21T20:45:45.817Z,40.00
2018-02-21T20:48:12.982Z,40.20
2018-02-21T20:50:40.146Z,40.70
2018-02-21T20:53:07.318Z,40.70
2018-02-21T20:55:35.310Z,40.80
2018-02-21T20:58:03.284Z,40.80
2018-02-21T21:00:35.124Z,40.40
2018-02-21T21:03:04.884Z,40.40
2018-02-21T21:05:36.229Z,40.20
2018-02-21T21:08:14.253Z,40.30
2018-02-21T21:10:46.505Z,41.00
2018-02-21T21:13:13.889Z,40.30
2018-02-21T21:15:41.096Z,40.70
2018-02-21T21:20:41.821Z,40.60
2018-02-21T21:23:09.774Z,41.10
2018-02-21T21:25:36.942Z,41.00
2018-02-21T21:28:04.894Z,41.20
2018-02-21T21:30:32.138Z,41.20
2018-02-21T21:32:59.366Z,40.80
2018-02-21T21:35:26.526Z,40.60
2018-02-21T21:37:53.695Z,41.00
2018-02-21T21:40:21.671Z,41.10
2018-02-21T21:42:48.837Z,41.10
2018-02-21T21:45:16.894Z,41.00
2018-02-21T21:47:44.195Z,41.00
2018-02-21T21:50:11.365Z,41.30
2018-02-21T21:52:38.525Z,41.10
2018-02-21T21:55:05.874Z,40.90
2018-02-21T21:57:33.054Z,40.80
2018-02-21T22:00:00.233Z,40.90
2018-02-21T22:02:28.158Z,40.40
2018-02-21T22:04:55.433Z,40.40
2018-02-21T22:07:23.485Z,41.00
2018-02-21T22:09:50.673Z,40.90
2018-02-21T22:12:18.603Z,40.90
2018-02-21T22:14:45.916Z,40.80
2018-02-21T22:17:13.135Z,40.80
2018-02-21T22:19:41.084Z,41.20
2018-02-21T22:22:09.016Z,41.30
2018-02-21T22:24:36.303Z,41.30
2018-02-21T22:27:03.536Z,41.20
2018-02-21T22:29:30.753Z,41.20
2018-02-21T22:31:58.684Z,41.10
2018-02-21T22:34:25.935Z,41.10
2018-02-21T22:36:53.150Z,41.30
2018-02-21T22:39:20.310Z,41.70
2018-02-21T22:41:47.605Z,41.50
2018-02-21T22:44:15.716Z,41.70
2018-02-21T22:46:42.926Z,41.60
2018-02-21T22:49:10.093Z,41.70
2018-02-21T22:51:38.190Z,41.80
2018-02-21T22:54:05.498Z,41.60
2018-02-21T22:56:33.444Z,41.50
2018-02-21T22:59:00.612Z,41.70
2018-02-21T23:01:27.936Z,41.60
2018-02-21T23:03:55.273Z,41.80
2018-02-21T23:06:22.442Z,42.10
2018-02-21T23:08:49.641Z,41.40
2018-02-21T23:11:17.001Z,41.80
2018-02-21T23:13:45.146Z,41.80
2018-02-21T23:16:12.320Z,41.80
2018-02-21T23:18:39.525Z,41.90
2018-02-21T23:21:07.675Z,41.80
2018-02-21T23:23:34.994Z,41.90
2018-02-21T23:26:02.173Z,41.70
2018-02-21T23:28:30.142Z,41.90
2018-02-21T23:30:58.096Z,41.80
2018-02-21T23:33:25.313Z,41.70
2018-02-21T23:35:52.482Z,42.20
2018-02-21T23:38:19.637Z,41.80
2018-02-21T23:40:46.796Z,41.90
2018-02-21T23:43:13.960Z,42.20
2018-02-21T23:45:41.149Z,41.60
2018-02-21T23:48:08.317Z,41.70
2018-02-21T23:50:35.485Z,41.10
2018-02-21T23:53:02.649Z,41.10
2018-02-21T23:55:29.857Z,41.30
2018-02-21T23:57:57.024Z,41.60
